createdAt,value
2019-03-25T00:00:40.007Z,30.73
2019-03-25T00:03:07.710Z,32.27
2019-03-25T00:05:35.739Z,30.10
2019-03-25T00:08:03.380Z,26.00
2019-03-25T00:10:31.054Z,24.70
2019-03-25T00:12:58.780Z,30.73
2019-03-25T00:15:26.862Z,25.37
2019-03-25T00:17:54.524Z,29.10
2019-03-25T00:20:22.543Z,26.87
2019-03-25T00:22:50.300Z,24.70
2019-03-25T00:25:18.382Z,28.00
2019-03-25T00:27:46.316Z,30.83
2019-03-25T00:30:14.630Z,22.13
2019-03-25T00:32:42.654Z,26.97
2019-03-25T00:35:10.831Z,41.37
2019-03-25T00:37:38.483Z,34.70
2019-03-25T00:40:06.406Z,28.93
2019-03-25T00:42:34.073Z,24.10
2019-03-25T00:45:01.769Z,28.13
2019-03-25T00:47:29.509Z,25.33
2019-03-25T00:49:57.185Z,24.07
2019-03-25T00:52:24.857Z,30.53
2019-03-25T00:54:52.527Z,29.17
2019-03-25T00:57:20.651Z,30.87
2019-03-25T00:59:49.088Z,29.10
2019-03-25T01:02:16.816Z,29.40
2019-03-25T01:04:44.488Z,32.40
2019-03-25T01:07:12.213Z,28.53
2019-03-25T01:09:40.269Z,33.47
2019-03-25T01:12:07.909Z,25.13
2019-03-25T01:14:35.619Z,28.67
2019-03-25T01:17:03.297Z,28.00
2019-03-25T01:19:31.298Z,23.83
2019-03-25T01:21:58.998Z,27.53
2019-03-25T01:24:27.036Z,23.43
2019-03-25T01:26:54.725Z,27.13
2019-03-25T01:29:22.746Z,31.47
2019-03-25T01:31:50.413Z,32.10
2019-03-25T01:34:18.166Z,35.40
2019-03-25T01:36:45.897Z,51.30
2019-03-25T01:39:13.535Z,30.07
2019-03-25T01:41:41.282Z,40.20
2019-03-25T01:44:09.297Z,29.37
2019-03-25T01:46:36.972Z,29.30
2019-03-25T01:49:04.666Z,33.43
2019-03-25T01:51:32.359Z,30.67
2019-03-25T01:53:59.982Z,30.80
2019-03-25T01:56:27.734Z,26.43
2019-03-25T01:58:55.446Z,31.07
2019-03-25T02:01:23.185Z,30.60
2019-03-25T02:03:50.919Z,35.80
2019-03-25T02:06:18.589Z,27.00
2019-03-25T02:08:46.541Z,31.23
2019-03-25T02:11:14.581Z,31.07
2019-03-25T02:13:42.254Z,35.47
2019-03-25T02:16:09.957Z,26.50
2019-03-25T02:18:37.689Z,26.87
2019-03-25T02:21:05.526Z,30.13
2019-03-25T02:23:33.593Z,28.90
2019-03-25T02:26:01.622Z,23.03
2019-03-25T02:28:29.299Z,26.27
2019-03-25T02:30:56.949Z,23.60
2019-03-25T02:33:24.691Z,28.43
2019-03-25T02:35:52.366Z,32.00
2019-03-25T02:38:20.011Z,29.27
2019-03-25T02:40:47.765Z,33.27
2019-03-25T02:43:15.392Z,33.00
2019-03-25T02:45:43.068Z,31.23
2019-03-25T02:48:11.114Z,27.07
2019-03-25T02:50:38.829Z,32.70
2019-03-25T02:53:06.615Z,31.40
2019-03-25T02:55:41.455Z,31.83
2019-03-25T02:58:03.645Z,28.10
2019-03-25T03:00:34.699Z,36.03
2019-03-25T03:03:02.761Z,33.70
2019-03-25T03:05:30.725Z,32.10
2019-03-25T03:07:58.437Z,32.33
2019-03-25T03:10:26.521Z,31.43
2019-03-25T03:12:54.233Z,34.43
2019-03-25T03:15:21.916Z,32.80
2019-03-25T03:17:49.657Z,31.77
2019-03-25T03:20:17.655Z,27.77
2019-03-25T03:22:45.667Z,39.07
2019-03-25T03:25:13.341Z,37.53
2019-03-25T03:27:41.419Z,33.60
2019-03-25T03:30:09.399Z,39.07
2019-03-25T03:32:37.134Z,34.33
2019-03-25T03:35:06.259Z,33.90
2019-03-25T03:37:33.985Z,36.10
2019-03-25T03:40:01.699Z,34.23
2019-03-25T03:42:29.388Z,42.80
2019-03-25T03:44:57.136Z,37.80
2019-03-25T03:47:24.805Z,35.37
2019-03-25T03:49:52.815Z,39.43
2019-03-25T03:52:20.618Z,33.13
2019-03-25T03:54:48.338Z,42.87
2019-03-25T03:57:16.027Z,44.47
2019-03-25T03:59:43.680Z,42.80
2019-03-25T04:02:11.765Z,39.53
2019-03-25T04:04:39.834Z,39.47
2019-03-25T04:07:07.510Z,37.87
2019-03-25T04:09:35.775Z,41.60
2019-03-25T04:12:03.526Z,33.93
2019-03-25T04:14:31.301Z,37.00
2019-03-25T04:16:59.338Z,39.03
2019-03-25T04:19:27.014Z,36.13
2019-03-25T04:21:54.753Z,36.77
2019-03-25T04:24:22.458Z,36.73
2019-03-25T04:26:50.222Z,42.20
2019-03-25T04:29:17.893Z,37.97
2019-03-25T04:31:45.670Z,38.37
2019-03-25T04:34:13.304Z,47.63
2019-03-25T04:36:41.299Z,45.10
2019-03-25T04:39:09.305Z,43.60
2019-03-25T04:41:37.242Z,44.43
2019-03-25T04:44:05.897Z,47.40
2019-03-25T04:46:33.871Z,48.73
2019-03-25T04:49:01.757Z,54.67
2019-03-25T04:51:29.822Z,43.00
2019-03-25T04:53:57.463Z,44.47
2019-03-25T04:56:25.182Z,41.80
2019-03-25T04:58:52.878Z,40.77
2019-03-25T05:01:20.587Z,48.07
2019-03-25T05:03:48.323Z,44.40
2019-03-25T05:06:15.961Z,42.43
2019-03-25T05:08:43.606Z,39.00
2019-03-25T05:11:11.313Z,35.83
2019-03-25T05:13:39.254Z,37.30
2019-03-25T05:16:06.960Z,38.07
2019-03-25T05:18:34.669Z,37.83
2019-03-25T05:21:02.758Z,32.17
2019-03-25T05:23:30.736Z,36.23
2019-03-25T05:25:58.420Z,31.83
2019-03-25T05:28:26.462Z,34.37
2019-03-25T05:30:54.642Z,38.77
2019-03-25T05:33:22.297Z,31.83
2019-03-25T05:35:50.037Z,34.43
2019-03-25T05:38:18.018Z,30.83
2019-03-25T05:40:45.693Z,30.40
2019-03-25T05:43:13.393Z,35.17
2019-03-25T05:45:41.029Z,28.37
2019-03-25T05:48:08.704Z,32.40
2019-03-25T05:50:36.417Z,28.40
2019-03-25T05:53:04.289Z,36.20
2019-03-25T05:55:31.924Z,30.20
2019-03-25T05:58:00.013Z,37.03
2019-03-25T06:00:32.230Z,32.87
2019-03-25T06:03:00.364Z,30.03
2019-03-25T06:05:28.090Z,30.10
2019-03-25T06:07:55.789Z,28.63
2019-03-25T06:10:23.486Z,28.63
2019-03-25T06:12:51.168Z,27.73
2019-03-25T06:15:18.848Z,29.30
2019-03-25T06:17:46.552Z,29.63
2019-03-25T06:20:14.629Z,28.63
2019-03-25T06:22:42.330Z,32.33
2019-03-25T06:25:10.127Z,27.47
2019-03-25T06:27:37.797Z,26.50
2019-03-25T06:30:07.463Z,28.20
2019-03-25T06:32:35.169Z,28.17
2019-03-25T06:35:02.815Z,29.90
2019-03-25T06:37:30.759Z,31.30
2019-03-25T06:39:58.409Z,27.87
2019-03-25T06:42:26.172Z,35.53
2019-03-25T06:44:54.232Z,28.77
2019-03-25T06:47:21.904Z,27.07
2019-03-25T06:49:49.573Z,28.43
2019-03-25T06:52:17.349Z,27.93
2019-03-25T06:54:45.062Z,28.67
2019-03-25T06:57:13.115Z,31.97
2019-03-25T06:59:41.196Z,32.27
2019-03-25T07:02:08.934Z,27.83
2019-03-25T07:04:36.601Z,29.23
2019-03-25T07:07:04.306Z,29.83
2019-03-25T07:09:32.384Z,35.97
2019-03-25T07:12:00.191Z,26.83
2019-03-25T07:14:28.730Z,33.50
2019-03-25T07:16:56.499Z,27.93
2019-03-25T07:19:24.232Z,26.23
2019-03-25T07:21:51.858Z,24.13
2019-03-25T07:24:19.566Z,28.40
2019-03-25T07:26:47.265Z,23.40
2019-03-25T07:29:15.346Z,25.60
2019-03-25T07:31:43.025Z,29.10
2019-03-25T07:34:11.068Z,23.03
2019-03-25T07:36:39.159Z,24.67
2019-03-25T07:39:06.989Z,22.83
2019-03-25T07:41:34.993Z,20.73
2019-03-25T07:44:02.716Z,23.70
2019-03-25T07:46:30.693Z,22.53
2019-03-25T07:48:58.739Z,18.80
2019-03-25T07:51:26.469Z,25.50
2019-03-25T07:53:54.539Z,20.30
2019-03-25T07:56:22.625Z,23.93
2019-03-25T07:58:50.310Z,18.30
2019-03-25T08:01:18.037Z,20.07
2019-03-25T08:03:45.729Z,17.73
2019-03-25T08:06:13.376Z,18.07
2019-03-25T08:08:41.027Z,20.13
2019-03-25T08:11:10.501Z,16.20
2019-03-25T08:13:38.636Z,17.47
2019-03-25T08:16:06.676Z,17.80
2019-03-25T08:18:34.353Z,10.23
2019-03-25T08:21:02.346Z,13.13
2019-03-25T08:23:30.386Z,15.03
2019-03-25T08:25:58.049Z,15.30
2019-03-25T08:28:25.692Z,11.47
2019-03-25T08:30:53.700Z,12.83
2019-03-25T08:33:21.757Z,10.93
2019-03-25T08:35:49.396Z,15.07
2019-03-25T08:38:17.040Z,12.43
2019-03-25T08:40:45.098Z,15.37
2019-03-25T08:43:13.090Z,13.07
2019-03-25T08:45:40.766Z,10.60
2019-03-25T08:48:08.453Z,12.63
2019-03-25T08:50:36.133Z,8.00
2019-03-25T08:53:03.904Z,12.13
2019-03-25T08:55:31.574Z,13.73
2019-03-25T08:58:11.222Z,19.10
2019-03-25T09:00:29.441Z,14.60
2019-03-25T09:02:57.143Z,15.87
2019-03-25T09:05:24.804Z,12.77
2019-03-25T09:07:52.799Z,10.87
2019-03-25T09:10:20.845Z,12.47
2019-03-25T09:12:48.484Z,16.70
2019-03-25T09:15:17.762Z,13.43
2019-03-25T09:17:45.459Z,11.37
2019-03-25T09:20:13.787Z,12.07
2019-03-25T09:22:42.519Z,14.10
2019-03-25T09:25:10.480Z,13.37
2019-03-25T09:27:38.140Z,16.67
2019-03-25T09:30:07.740Z,14.67
2019-03-25T09:32:35.528Z,14.87
2019-03-25T09:35:03.879Z,12.07
2019-03-25T09:37:31.916Z,10.67
2019-03-25T09:39:59.561Z,22.67
2019-03-25T09:42:27.241Z,12.00
2019-03-25T09:44:54.925Z,13.07
2019-03-25T09:47:22.968Z,13.93
2019-03-25T09:49:50.657Z,12.63
2019-03-25T09:52:18.377Z,13.33
2019-03-25T09:54:46.478Z,15.67
2019-03-25T09:57:14.233Z,16.37
2019-03-25T09:59:41.961Z,15.83
2019-03-25T10:02:09.629Z,12.27
2019-03-25T10:04:37.272Z,13.13
2019-03-25T10:07:05.016Z,10.93
2019-03-25T10:09:32.989Z,13.70
2019-03-25T10:12:00.729Z,13.97
2019-03-25T10:14:28.410Z,16.17
2019-03-25T10:16:56.078Z,17.00
2019-03-25T10:19:23.793Z,12.87
2019-03-25T10:21:51.728Z,13.07
2019-03-25T10:24:19.463Z,13.53
2019-03-25T10:26:48.818Z,15.50
2019-03-25T10:29:16.515Z,13.13
2019-03-25T10:31:44.380Z,17.67
2019-03-25T10:34:12.135Z,42.77
2019-03-25T10:36:40.167Z,15.27
2019-03-25T10:39:07.837Z,24.10
2019-03-25T10:41:38.326Z,12.40
2019-03-25T10:44:05.734Z,11.65
2019-03-25T10:46:33.392Z,13.73
2019-03-25T10:49:01.095Z,15.93
2019-03-25T10:51:28.781Z,12.47
2019-03-25T10:53:56.595Z,15.07
2019-03-25T10:56:24.273Z,15.73
2019-03-25T10:58:58.029Z,13.10
2019-03-25T11:01:21.685Z,15.03
2019-03-25T11:03:49.365Z,11.77
2019-03-25T11:08:40.304Z,10.80
2019-03-25T11:11:08.086Z,9.47
2019-03-25T11:13:35.844Z,9.87
2019-03-25T11:16:03.549Z,12.57
2019-03-25T11:18:31.375Z,11.13
2019-03-25T11:20:59.147Z,13.13
2019-03-25T11:23:26.912Z,13.27
2019-03-25T11:25:54.570Z,11.80
2019-03-25T11:28:22.557Z,15.03
2019-03-25T11:30:57.275Z,13.37
2019-03-25T11:33:25.137Z,16.67
2019-03-25T11:35:53.017Z,13.10
2019-03-25T11:38:20.859Z,9.23
2019-03-25T11:40:48.629Z,11.57
2019-03-25T11:43:16.415Z,15.10
2019-03-25T11:45:44.363Z,15.70
2019-03-25T11:48:12.154Z,13.40
2019-03-25T11:50:39.897Z,15.50
2019-03-25T11:53:07.668Z,9.73
2019-03-25T11:55:35.446Z,11.20
2019-03-25T11:58:03.169Z,15.00
2019-03-25T12:00:30.825Z,12.43
2019-03-25T12:02:58.644Z,11.70
2019-03-25T12:05:26.510Z,12.33
2019-03-25T12:07:54.171Z,18.97
2019-03-25T12:10:22.431Z,13.90
2019-03-25T12:12:50.417Z,14.67
2019-03-25T12:15:18.290Z,17.23
2019-03-25T12:17:46.061Z,17.47
2019-03-25T12:20:13.812Z,13.83
2019-03-25T12:22:41.476Z,11.93
2019-03-25T12:25:09.364Z,12.80
2019-03-25T12:27:37.837Z,14.77
2019-03-25T12:30:07.024Z,23.30
2019-03-25T12:32:34.900Z,15.00
2019-03-25T12:35:02.677Z,11.40
2019-03-25T12:37:30.425Z,11.47
2019-03-25T12:39:58.196Z,15.37
2019-03-25T12:42:25.974Z,11.63
2019-03-25T12:44:53.629Z,8.27
2019-03-25T12:47:21.494Z,14.00
2019-03-25T12:49:49.152Z,12.67
2019-03-25T12:52:16.927Z,12.53
2019-03-25T12:54:44.689Z,11.73
2019-03-25T12:57:12.466Z,13.83
2019-03-25T12:59:41.467Z,12.47
2019-03-25T13:02:09.593Z,14.40
2019-03-25T13:04:37.375Z,13.80
2019-03-25T13:07:05.167Z,11.00
2019-03-25T13:09:33.135Z,13.27
2019-03-25T13:12:01.002Z,9.13
2019-03-25T13:14:28.724Z,13.93
2019-03-25T13:16:56.424Z,10.00
2019-03-25T13:19:24.301Z,13.67
2019-03-25T13:21:51.991Z,12.20
2019-03-25T13:24:20.844Z,11.43
2019-03-25T13:26:48.472Z,14.67
2019-03-25T13:29:16.289Z,13.03
2019-03-25T13:31:44.056Z,14.63
2019-03-25T13:34:11.812Z,16.87
2019-03-25T13:36:39.563Z,11.13
2019-03-25T13:39:07.446Z,10.83
2019-03-25T13:41:35.217Z,13.23
2019-03-25T13:44:02.874Z,12.97
2019-03-25T13:46:30.574Z,15.67
2019-03-25T13:48:58.514Z,14.00
2019-03-25T13:51:26.159Z,26.10
2019-03-25T13:53:53.944Z,25.87
2019-03-25T13:56:21.808Z,18.17
2019-03-25T13:58:49.580Z,15.57
2019-03-25T14:01:18.314Z,19.03
2019-03-25T14:03:46.033Z,18.23
2019-03-25T14:06:13.899Z,17.90
2019-03-25T14:08:41.767Z,16.83
2019-03-25T14:11:09.524Z,16.10
2019-03-25T14:13:48.311Z,20.37
2019-03-25T14:16:06.809Z,20.03
2019-03-25T14:18:34.670Z,16.07
2019-03-25T14:21:02.417Z,21.57
2019-03-25T14:23:30.092Z,18.73
2019-03-25T14:25:57.792Z,17.50
2019-03-25T14:28:25.537Z,12.90
2019-03-25T14:30:53.228Z,13.03
2019-03-25T14:33:21.185Z,16.43
2019-03-25T14:35:48.910Z,11.23
2019-03-25T14:38:16.703Z,13.97
2019-03-25T14:40:44.460Z,10.00
2019-03-25T14:43:12.443Z,11.43
2019-03-25T14:45:40.295Z,11.73
2019-03-25T14:48:08.172Z,12.77
2019-03-25T14:50:35.928Z,15.63
2019-03-25T14:53:03.620Z,15.30
2019-03-25T14:55:31.358Z,14.43
2019-03-25T14:57:59.061Z,11.33
2019-03-25T15:00:26.755Z,9.13
2019-03-25T15:02:54.554Z,8.53
2019-03-25T15:05:22.324Z,10.33
2019-03-25T15:07:50.300Z,12.13
2019-03-25T15:10:18.274Z,17.70
2019-03-25T15:12:45.929Z,12.20
2019-03-25T15:15:13.751Z,17.37
2019-03-25T15:17:41.561Z,20.00
2019-03-25T15:20:10.170Z,7.87
2019-03-25T15:22:38.007Z,6.93
2019-03-25T15:25:06.895Z,10.40
2019-03-25T15:27:34.659Z,11.40
2019-03-25T15:30:02.543Z,7.23
2019-03-25T15:32:30.298Z,9.43
2019-03-25T15:34:57.970Z,10.87
2019-03-25T15:37:25.738Z,7.70
2019-03-25T15:39:53.612Z,8.77
2019-03-25T15:42:21.992Z,7.80
2019-03-25T15:44:49.748Z,7.33
2019-03-25T15:47:17.430Z,4.97
2019-03-25T15:49:45.191Z,10.47
2019-03-25T15:52:12.828Z,7.13
2019-03-25T15:54:40.615Z,8.77
2019-03-25T15:57:08.385Z,70.67
2019-03-25T15:59:36.154Z,32.07
2019-03-25T16:02:03.865Z,14.33
2019-03-25T16:04:31.587Z,13.53
2019-03-25T16:06:59.342Z,9.30
2019-03-25T16:09:27.105Z,5.87
2019-03-25T16:11:54.870Z,9.27
2019-03-25T16:14:22.641Z,5.07
2019-03-25T16:16:50.510Z,5.00
2019-03-25T16:19:18.461Z,13.70
2019-03-25T16:21:46.245Z,13.30
2019-03-25T16:24:14.008Z,17.37
2019-03-25T16:26:41.782Z,8.60
2019-03-25T16:29:09.536Z,9.47
2019-03-25T16:31:37.310Z,9.23
2019-03-25T16:34:05.687Z,5.90
2019-03-25T16:36:33.561Z,7.30
2019-03-25T16:39:01.424Z,9.80
2019-03-25T16:41:29.298Z,7.30
2019-03-25T16:43:57.163Z,14.13
2019-03-25T16:46:26.456Z,6.57
2019-03-25T16:48:55.365Z,11.10
2019-03-25T16:51:23.187Z,14.33
2019-03-25T16:53:50.988Z,29.17
2019-03-25T16:56:18.758Z,19.20
2019-03-25T16:58:46.454Z,8.23
2019-03-25T17:01:14.293Z,6.53
2019-03-25T17:03:41.937Z,9.93
2019-03-25T17:06:09.610Z,14.07
2019-03-25T17:08:37.335Z,12.37
2019-03-25T17:11:05.287Z,7.27
2019-03-25T17:13:33.005Z,5.00
2019-03-25T17:16:00.881Z,7.07
2019-03-25T17:18:29.504Z,7.60
2019-03-25T17:20:57.233Z,6.53
2019-03-25T17:23:24.905Z,4.17
2019-03-25T17:25:53.448Z,9.07
2019-03-25T17:28:21.379Z,7.47
2019-03-25T17:30:49.079Z,7.07
2019-03-25T17:33:16.740Z,5.57
2019-03-25T17:35:44.403Z,8.00
2019-03-25T17:38:12.200Z,6.00
2019-03-25T17:40:39.860Z,7.03
2019-03-25T17:43:07.549Z,8.20
2019-03-25T17:45:35.328Z,5.37
2019-03-25T17:48:03.029Z,6.93
2019-03-25T17:50:30.693Z,5.83
2019-03-25T17:52:58.392Z,5.87
2019-03-25T17:55:26.040Z,8.80
2019-03-25T17:57:53.676Z,6.47
2019-03-25T18:00:39.290Z,6.37
2019-03-25T18:03:11.195Z,8.73
2019-03-25T18:05:36.368Z,9.80
2019-03-25T18:08:04.244Z,12.37
2019-03-25T18:10:32.111Z,15.90
2019-03-25T18:12:59.981Z,11.00
2019-03-25T18:15:27.644Z,14.00
2019-03-25T18:17:55.287Z,13.37
2019-03-25T18:20:22.955Z,17.07
2019-03-25T18:22:50.736Z,24.53
2019-03-25T18:25:18.605Z,25.73
2019-03-25T18:27:46.264Z,14.83
2019-03-25T18:30:14.053Z,9.70
2019-03-25T18:32:42.026Z,13.33
2019-03-25T18:35:11.153Z,14.30
2019-03-25T18:37:38.880Z,14.20
2019-03-25T18:40:06.545Z,14.20
2019-03-25T18:42:34.242Z,13.00
2019-03-25T18:45:02.433Z,12.17
2019-03-25T18:47:30.130Z,14.17
2019-03-25T18:49:57.901Z,17.13
2019-03-25T18:52:25.879Z,10.43
2019-03-25T18:54:53.636Z,16.37
2019-03-25T18:57:21.711Z,12.70
2019-03-25T18:59:49.469Z,16.77
2019-03-25T19:02:17.337Z,17.07
2019-03-25T19:04:45.603Z,16.90
2019-03-25T19:07:13.313Z,13.17
2019-03-25T19:09:41.052Z,13.53
2019-03-25T19:12:08.676Z,10.33
2019-03-25T19:14:36.379Z,9.37
2019-03-25T19:17:05.435Z,14.70
2019-03-25T19:19:33.412Z,12.63
2019-03-25T19:22:01.133Z,10.60
2019-03-25T19:24:28.800Z,12.97
2019-03-25T19:26:56.464Z,13.87
2019-03-25T19:29:24.156Z,13.53
2019-03-25T19:31:51.798Z,12.63
2019-03-25T19:34:19.497Z,13.20
2019-03-25T19:36:47.263Z,12.07
2019-03-25T19:39:14.972Z,12.57
2019-03-25T19:41:42.615Z,16.70
2019-03-25T19:44:10.594Z,11.37
2019-03-25T19:46:38.314Z,19.80
2019-03-25T19:49:05.974Z,14.27
2019-03-25T19:51:33.667Z,15.20
2019-03-25T19:54:01.338Z,14.93
2019-03-25T19:56:29.059Z,14.90
2019-03-25T19:58:56.789Z,12.70
2019-03-25T20:01:24.416Z,12.30
2019-03-25T20:03:52.183Z,13.00
2019-03-25T20:06:26.136Z,14.50
2019-03-25T20:08:49.231Z,11.50
2019-03-25T20:11:16.926Z,14.07
2019-03-25T20:13:44.546Z,11.77
2019-03-25T20:16:12.257Z,12.67
2019-03-25T20:18:39.945Z,12.43
2019-03-25T20:21:07.646Z,11.87
2019-03-25T20:23:35.312Z,13.00
2019-03-25T20:26:03.160Z,14.23
2019-03-25T20:28:30.821Z,10.57
2019-03-25T20:30:58.665Z,12.40
2019-03-25T20:33:26.316Z,13.07
2019-03-25T20:35:53.985Z,13.23
2019-03-25T20:38:21.723Z,14.80
2019-03-25T20:40:49.350Z,17.17
2019-03-25T20:43:17.096Z,17.33
2019-03-25T20:45:44.743Z,18.93
2019-03-25T20:48:12.549Z,18.40
2019-03-25T20:50:40.330Z,19.17
2019-03-25T20:53:08.071Z,11.77
2019-03-25T20:55:35.756Z,24.07
2019-03-25T20:58:03.433Z,28.30
2019-03-25T21:00:32.580Z,24.43
2019-03-25T21:03:00.322Z,17.27
2019-03-25T21:05:27.938Z,18.47
2019-03-25T21:07:55.617Z,30.57
2019-03-25T21:10:23.356Z,16.73
2019-03-25T21:12:51.039Z,28.23
2019-03-25T21:15:18.756Z,21.50
2019-03-25T21:17:46.432Z,38.87
2019-03-25T21:20:14.198Z,19.73
2019-03-25T21:22:41.957Z,18.27
2019-03-25T21:25:09.757Z,14.43
2019-03-25T21:27:37.429Z,13.30
2019-03-25T21:30:06.899Z,21.87
2019-03-25T21:32:34.673Z,17.70
2019-03-25T21:35:02.395Z,14.50
2019-03-25T21:37:30.181Z,18.17
2019-03-25T21:39:57.958Z,12.50
2019-03-25T21:42:25.589Z,15.63
2019-03-25T21:44:53.318Z,14.60
2019-03-25T21:47:20.960Z,19.87
2019-03-25T21:49:48.693Z,12.30
2019-03-25T21:52:16.408Z,12.60
2019-03-25T21:54:44.253Z,18.80
2019-03-25T21:57:11.965Z,11.53
2019-03-25T21:59:39.699Z,10.73
2019-03-25T22:02:07.480Z,12.50
2019-03-25T22:04:35.111Z,13.23
2019-03-25T22:07:02.866Z,14.13
2019-03-25T22:09:30.500Z,10.60
2019-03-25T22:11:58.179Z,12.03
2019-03-25T22:14:25.878Z,10.40
2019-03-25T22:16:53.512Z,11.23
2019-03-25T22:19:21.279Z,10.60
2019-03-25T22:21:49.018Z,13.20
2019-03-25T22:24:16.733Z,10.70
2019-03-25T22:26:44.404Z,10.87
2019-03-25T22:29:12.081Z,16.47
2019-03-25T22:31:39.888Z,9.53
2019-03-25T22:34:07.570Z,11.37
2019-03-25T22:36:35.228Z,11.87
2019-03-25T22:39:02.955Z,15.80
2019-03-25T22:41:30.579Z,10.50
2019-03-25T22:43:58.271Z,14.10
2019-03-25T22:46:25.983Z,12.37
2019-03-25T22:48:53.655Z,11.73
2019-03-25T22:51:21.369Z,9.50
2019-03-25T22:53:49.052Z,10.30
2019-03-25T22:56:16.696Z,10.93
2019-03-25T22:58:44.437Z,12.90
2019-03-25T23:01:12.302Z,10.40
2019-03-25T23:03:40.010Z,9.40
2019-03-25T23:06:07.684Z,11.60
2019-03-25T23:08:35.386Z,11.33
2019-03-25T23:11:03.290Z,12.90
2019-03-25T23:13:30.957Z,11.90
2019-03-25T23:15:58.592Z,9.53
2019-03-25T23:18:26.406Z,10.30
2019-03-25T23:20:54.112Z,11.87
2019-03-25T23:23:21.744Z,11.63
2019-03-25T23:25:49.422Z,13.03
2019-03-25T23:28:17.081Z,10.23
2019-03-25T23:30:44.756Z,14.53
2019-03-25T23:33:12.480Z,9.03
2019-03-25T23:35:40.155Z,8.63
2019-03-25T23:38:07.791Z,8.50
2019-03-25T23:40:35.486Z,9.77
2019-03-25T23:43:03.229Z,9.07
2019-03-25T23:45:30.935Z,8.87
2019-03-25T23:47:58.592Z,11.13
2019-03-25T23:50:26.261Z,10.00
2019-03-25T23:52:54.013Z,9.93
2019-03-25T23:55:21.645Z,11.10
2019-03-25T23:57:49.285Z,12.77
